Kezdőlap
METAR-TAF:

METAR-TAF

Repülőterek :

Pattaya-Rayong, Thaiföld

földrajzi szélesség: 12-38N, földrajzi hosszúság: 101-21E, magasság: 3 m

Jelenlegi meteorológiai megfigyelések

A jelentés 21 perccel ezelõtt készült, 01:00 UTC
Nyugat-délnyugati szél 10 kt
Hőmérséklet 29°C
Páratartalom 70%
Légköri nyomás 1006 hPa
Látótávolság 10 km, vagy több
Kevés felhő 2000 lábon
Szórványos felhőzet 4000 lábon

METAR: VTBU 230100Z 24010KT 9999 FEW020 SCT040 29/23 Q1006 NOSIG

Idő: 08:21 (01:21 UTC)

Előrejelzés

A jelentés 2 órával és 21 perccel ezelõtt készült, 23:00 UTC
Az előrejelzés 23-én 00 óra UTC és 23-én 24 óra UTC között érvényes
Délnyugati szél 8 kt
Látótávolság 10 km, vagy több
Kevés felhő 2000 lábon
Szórványos felhőzet 10000 lábon

TAF: VTBU 222300Z 2300/2324 23008KT 9999 FEW020 SCT100

Meteorológiai megfigyelések és előrejelzések több, mint 4000 repülőtéren (METAR és TAF jelentéseket).

A térképen piros és sárga pontok jelzik az elérhető meteorológiai állomásokat.

Mozgassa az egeret a pont fölött, hogy megjelenjen az állomás neve.

Azután kattintson az időjárási megfigyelések és előrejelzések megtekintéséhez.

A térkép megváltoztatása: kattintson a fekete keresztel jelölt zöld gombra ráközelítéshez, a vonallal jelölt zöld gombra távolításhoz, vagy a zöld nyilakra a szomszédos térképek eléréséhez.


METAR-TAF: